createdAt,value
2022-09-26T00:01:07.712Z,98164.92
2022-09-26T00:03:35.864Z,98168.34
2022-09-26T00:06:28.011Z,98163.43
2022-09-26T00:09:25.880Z,98160.10
2022-09-26T00:12:03.624Z,98163.89
2022-09-26T00:14:36.753Z,98163.23
2022-09-26T00:17:09.606Z,98163.50
2022-09-26T00:19:56.289Z,98160.86
2022-09-26T00:22:23.680Z,98158.67
2022-09-26T00:24:53.612Z,98158.48
2022-09-26T00:27:23.516Z,98158.22
2022-09-26T00:29:57.162Z,98153.15
2022-09-26T00:32:27.995Z,98149.82
2022-09-26T00:35:00.166Z,98152.25
2022-09-26T00:37:29.476Z,98154.13
2022-09-26T00:40:16.686Z,98155.05
2022-09-26T00:42:56.549Z,98151.46
2022-09-26T00:45:31.584Z,98147.26
2022-09-26T00:48:05.296Z,98138.86
2022-09-26T00:50:37.303Z,98133.65
2022-09-26T00:53:33.208Z,98127.08
2022-09-26T00:56:11.695Z,98131.09
2022-09-26T00:58:42.609Z,98132.20
2022-09-26T01:01:20.612Z,98137.73
2022-09-26T01:04:03.566Z,98132.77
2022-09-26T01:06:41.095Z,98136.42
2022-09-26T01:09:19.689Z,98134.55
2022-09-26T01:11:53.261Z,98129.81
2022-09-26T01:14:40.230Z,98127.29
2022-09-26T01:17:19.221Z,98121.11
2022-09-26T01:20:16.158Z,98125.98
2022-09-26T01:23:13.885Z,98132.34
2022-09-26T01:26:18.520Z,98130.38
2022-09-26T01:29:05.691Z,98125.85
2022-09-26T01:31:35.289Z,98126.48
2022-09-26T01:34:31.250Z,98125.66
2022-09-26T01:37:27.855Z,98122.11
2022-09-26T01:40:23.253Z,98126.30
2022-09-26T01:43:13.143Z,98125.85
2022-09-26T01:45:55.617Z,98127.88
2022-09-26T01:48:46.361Z,98122.90
2022-09-26T01:52:11.405Z,98121.95
2022-09-26T01:54:51.343Z,98123.64
2022-09-26T01:58:03.449Z,98125.40
2022-09-26T02:00:37.088Z,98129.84
2022-09-26T02:03:11.936Z,98131.43
2022-09-26T02:06:03.631Z,98129.75
2022-09-26T02:08:41.043Z,98129.86
2022-09-26T02:11:13.452Z,98137.27
2022-09-26T02:14:26.941Z,98134.65
2022-09-26T02:17:04.695Z,98125.73
2022-09-26T02:19:59.731Z,98122.46
2022-09-26T02:22:39.363Z,98114.30
2022-09-26T02:25:28.754Z,98111.09
2022-09-26T02:28:23.571Z,98111.61
2022-09-26T02:30:53.702Z,98101.02
2022-09-26T02:33:21.076Z,98100.98
2022-09-26T02:36:03.729Z,98098.75
2022-09-26T02:38:37.286Z,98103.73
2022-09-26T02:42:08.057Z,98108.46
2022-09-26T02:45:21.492Z,98107.37
2022-09-26T02:48:16.533Z,98105.10
2022-09-26T02:51:39.929Z,98114.07
2022-09-26T02:54:53.675Z,98104.27
2022-09-26T02:57:54.506Z,98095.28
2022-09-26T03:01:21.878Z,98093.20
2022-09-26T03:04:01.641Z,98090.96
2022-09-26T03:06:39.395Z,98087.09
2022-09-26T03:09:09.824Z,98088.86
2022-09-26T03:11:38.018Z,98093.46
2022-09-26T03:14:06.250Z,98097.90
2022-09-26T03:16:40.817Z,98100.45
2022-09-26T03:19:34.012Z,98105.65
2022-09-26T03:22:02.048Z,98105.45
2022-09-26T03:24:29.806Z,98100.02
2022-09-26T03:27:00.020Z,98101.50
2022-09-26T03:29:27.050Z,98108.63
2022-09-26T03:31:54.340Z,98115.27
2022-09-26T03:34:22.535Z,98112.09
2022-09-26T03:36:50.120Z,98101.02
2022-09-26T03:39:17.162Z,98094.01
2022-09-26T03:42:01.514Z,98099.39
2022-09-26T03:44:30.318Z,98098.04
2022-09-26T03:47:13.004Z,98096.26
2022-09-26T03:49:42.485Z,98089.88
2022-09-26T03:52:12.480Z,98083.27
2022-09-26T03:54:39.583Z,98079.14
2022-09-26T03:57:06.589Z,98081.90
2022-09-26T03:59:36.258Z,98085.75
2022-09-26T04:02:03.310Z,98088.38
2022-09-26T04:04:34.574Z,98092.23
2022-09-26T04:07:01.759Z,98093.20
2022-09-26T04:09:30.565Z,98085.14
2022-09-26T04:11:58.003Z,98080.06
2022-09-26T04:14:25.991Z,98075.34
2022-09-26T04:16:55.579Z,98063.72
2022-09-26T04:19:26.237Z,98056.87
2022-09-26T04:21:53.007Z,98053.98
2022-09-26T04:25:08.228Z,98052.45
2022-09-26T04:28:43.380Z,98045.64
2022-09-26T04:31:22.401Z,98040.82
2022-09-26T04:34:27.276Z,98043.22
2022-09-26T04:42:51.508Z,98050.96
2022-09-26T04:45:52.850Z,98058.72
2022-09-26T04:48:36.346Z,98060.41
2022-09-26T04:51:43.383Z,98054.73
2022-09-26T04:54:16.473Z,98054.06
2022-09-26T04:56:45.924Z,98059.52
2022-09-26T04:59:12.905Z,98065.16
2022-09-26T05:49:36.077Z,98041.67
2022-09-26T05:52:05.048Z,98037.21
2022-09-26T05:54:33.252Z,98031.70
2022-09-26T05:57:01.561Z,98021.09
2022-09-26T05:59:47.009Z,98017.27
2022-09-26T06:06:41.910Z,98020.70
2022-09-26T06:09:22.690Z,98023.67
2022-09-26T06:11:55.278Z,98030.10
2022-09-26T06:14:24.887Z,98034.98
2022-09-26T06:16:52.346Z,98035.77
2022-09-26T06:19:22.799Z,98032.96
2022-09-26T06:21:50.440Z,98031.88
2022-09-26T06:24:18.088Z,98032.31
2022-09-26T06:26:45.103Z,98036.46
2022-09-26T06:30:25.100Z,98032.44
2022-09-26T06:33:42.137Z,98028.98
2022-09-26T06:41:17.021Z,98026.94
2022-09-26T06:43:49.365Z,98022.30
2022-09-26T06:46:42.279Z,98021.69
2022-09-26T06:49:13.042Z,98016.70
2022-09-26T06:51:48.502Z,98019.33
2022-09-26T06:54:16.651Z,98016.40
2022-09-26T06:56:43.483Z,98014.11
2022-09-26T06:59:12.534Z,98018.13
2022-09-26T07:02:53.305Z,98019.67
2022-09-26T07:07:00.408Z,98015.15
2022-09-26T07:10:43.587Z,98012.64
2022-09-26T07:18:34.055Z,98025.95
2022-09-26T07:21:48.024Z,98026.52
2022-09-26T07:25:34.789Z,98029.52
2022-09-26T07:28:52.226Z,98027.50
2022-09-26T07:32:33.734Z,98023.23
2022-09-26T08:00:38.782Z,97974.57
2022-09-26T08:03:30.435Z,97971.85
2022-09-26T08:06:23.402Z,97965.41
2022-09-26T08:09:13.420Z,97960.86
2022-09-26T08:12:15.204Z,97962.01
2022-09-26T08:15:13.143Z,97961.91
2022-09-26T08:18:21.560Z,97951.90
2022-09-26T08:20:54.311Z,97947.55
2022-09-26T08:23:25.520Z,97955.58
2022-09-26T08:26:55.391Z,97946.41
2022-09-26T08:30:54.291Z,97934.96
2022-09-26T08:33:28.057Z,97927.48
2022-09-26T08:36:54.541Z,97929.07
2022-09-26T08:39:43.133Z,97942.61
2022-09-26T08:43:10.859Z,97949.83
2022-09-26T08:46:52.605Z,97932.69
2022-09-26T09:13:45.630Z,97894.05
2022-09-26T09:16:55.538Z,97896.02
2022-09-26T09:19:58.095Z,97896.06
2022-09-26T09:23:26.296Z,97904.92
2022-09-26T09:30:17.171Z,97905.76
2022-09-26T09:33:28.957Z,97910.38
2022-09-26T09:36:48.631Z,97914.15
2022-09-26T09:39:42.474Z,97911.84
2022-09-26T09:42:49.657Z,97912.11
2022-09-26T09:46:25.783Z,97906.56
2022-09-26T09:49:24.341Z,97905.35
2022-09-26T09:52:22.586Z,97910.27
2022-09-26T10:07:44.537Z,97909.85
2022-09-26T10:11:25.585Z,97912.29
2022-09-26T10:32:44.840Z,97923.02
2022-09-26T10:36:56.717Z,97920.71
2022-09-26T10:41:12.193Z,97925.26
2022-09-26T10:44:44.408Z,97922.70
2022-09-26T10:47:59.109Z,97917.94
2022-09-26T10:50:51.900Z,97912.55
2022-09-26T10:54:10.661Z,97901.73
2022-09-26T11:12:01.753Z,97883.45
2022-09-26T11:15:34.904Z,97880.55
2022-09-26T11:22:15.044Z,97867.75
2022-09-26T11:25:38.682Z,97857.48
2022-09-26T11:28:38.025Z,97855.41
2022-09-26T11:37:12.268Z,97848.70
2022-09-26T11:40:21.462Z,97846.96
2022-09-26T11:47:21.258Z,97840.23
2022-09-26T12:49:37.064Z,97803.27
2022-09-26T13:15:07.599Z,97796.10
2022-09-26T13:17:41.168Z,97797.47
2022-09-26T13:20:27.122Z,97793.92
2022-09-26T14:02:52.136Z,97768.36
2022-09-26T14:13:51.105Z,97764.69
2022-09-26T14:17:01.587Z,97760.46
2022-09-26T14:49:34.934Z,97715.13
2022-09-26T14:52:06.345Z,97712.83
2022-09-26T14:54:45.109Z,97708.48
2022-09-26T14:57:49.025Z,97705.69
2022-09-26T15:05:25.723Z,97692.98
2022-09-26T15:07:58.156Z,97695.20
2022-09-26T15:10:56.563Z,97695.65
2022-09-26T15:13:42.835Z,97691.70
2022-09-26T15:16:40.205Z,97689.87
2022-09-26T15:22:31.099Z,97700.48
2022-09-26T15:25:18.582Z,97702.73
2022-09-26T15:32:49.831Z,97700.88
2022-09-26T15:40:17.560Z,97697.09
2022-09-26T15:57:41.162Z,97703.55
2022-09-26T16:26:02.944Z,97733.98
2022-09-26T16:35:30.871Z,97740.58
2022-09-26T16:49:14.006Z,97713.09
2022-09-26T16:51:44.068Z,97719.35
2022-09-26T16:54:23.214Z,97721.04
2022-09-26T16:56:51.176Z,97722.30
2022-09-26T16:59:28.564Z,97730.19
2022-09-26T17:02:00.806Z,97731.37
2022-09-26T17:04:35.477Z,97730.98
2022-09-26T17:07:11.582Z,97732.30
2022-09-26T17:09:44.205Z,97731.73
2022-09-26T17:12:21.172Z,97734.18
2022-09-26T17:14:52.188Z,97734.15
2022-09-26T17:17:25.416Z,97737.42
2022-09-26T17:20:16.930Z,97735.67
2022-09-26T17:22:46.142Z,97736.70
2022-09-26T17:25:13.803Z,97739.77
2022-09-26T17:28:15.152Z,97735.48
2022-09-26T17:30:42.891Z,97733.21
2022-09-26T17:33:12.518Z,97729.42
2022-09-26T17:35:45.604Z,97730.54
2022-09-26T17:38:18.897Z,97734.68
2022-09-26T17:40:52.652Z,97736.94
2022-09-26T17:43:29.311Z,97737.90
2022-09-26T17:46:19.795Z,97739.37
2022-09-26T17:49:18.352Z,97737.11
2022-09-26T17:51:46.118Z,97734.77
2022-09-26T17:54:18.292Z,97735.46
2022-09-26T17:56:50.786Z,97734.87
2022-09-26T17:59:22.822Z,97736.05
2022-09-26T18:01:54.783Z,97733.30
2022-09-26T18:04:26.496Z,97732.09
2022-09-26T18:06:56.539Z,97731.83
2022-09-26T18:09:24.661Z,97731.42
2022-09-26T18:12:00.217Z,97729.21
2022-09-26T18:14:33.626Z,97731.21
2022-09-26T18:17:01.048Z,97732.17
2022-09-26T18:19:31.175Z,97732.09
2022-09-26T18:21:59.264Z,97731.57
2022-09-26T18:24:29.295Z,97725.81
2022-09-26T18:27:03.239Z,97719.92
2022-09-26T18:29:40.235Z,97710.00
2022-09-26T18:32:33.955Z,97709.77
2022-09-26T18:35:01.172Z,97717.91
2022-09-26T18:37:28.809Z,97715.73
2022-09-26T18:40:00.111Z,97709.63
2022-09-26T18:42:28.841Z,97704.26
2022-09-26T18:45:03.902Z,97694.71
2022-09-26T18:47:41.475Z,97683.05
2022-09-26T18:50:36.395Z,97693.55
2022-09-26T18:53:28.849Z,97690.15
2022-09-26T18:56:15.784Z,97679.95
2022-09-26T18:58:43.444Z,97679.46
2022-09-26T19:01:35.010Z,97674.95
2022-09-26T19:04:23.441Z,97677.48
2022-09-26T19:07:04.684Z,97681.00
2022-09-26T19:09:55.097Z,97683.49
2022-09-26T19:12:22.848Z,97681.27
2022-09-26T19:14:50.019Z,97679.02
2022-09-26T19:17:17.134Z,97677.29
2022-09-26T19:19:44.461Z,97677.34
2022-09-26T19:22:15.983Z,97676.10
2022-09-26T19:24:48.750Z,97666.12
2022-09-26T19:27:19.943Z,97658.86
2022-09-26T19:30:05.570Z,97654.45
2022-09-26T19:32:43.907Z,97662.33
2022-09-26T19:35:24.440Z,97657.04
2022-09-26T19:37:52.092Z,97652.29
2022-09-26T19:40:20.864Z,97648.17
2022-09-26T19:42:48.615Z,97640.14
2022-09-26T19:45:23.288Z,97639.73
2022-09-26T19:48:05.182Z,97638.76
2022-09-26T19:50:43.048Z,97632.23
2022-09-26T19:53:24.966Z,97615.78
2022-09-26T19:56:24.205Z,97621.20
2022-09-26T19:58:52.304Z,97630.39
2022-09-26T20:01:42.504Z,97624.23
2022-09-26T20:04:18.088Z,97633.38
2022-09-26T20:07:04.445Z,97639.31
2022-09-26T20:15:16.093Z,97612.02
2022-09-26T20:18:46.327Z,97608.04
2022-09-26T20:21:40.605Z,97610.16
2022-09-26T20:24:17.378Z,97614.02
2022-09-26T20:27:55.842Z,97619.91
2022-09-26T20:30:43.623Z,97630.70
2022-09-26T20:33:52.130Z,97634.33
2022-09-26T20:37:03.543Z,97627.90
2022-09-26T20:39:31.515Z,97614.56
2022-09-26T20:41:58.436Z,97599.47
2022-09-26T20:44:33.090Z,97603.46
2022-09-26T20:47:04.130Z,97614.05
2022-09-26T20:49:40.774Z,97613.67
2022-09-26T20:52:17.716Z,97615.94
2022-09-26T20:54:45.442Z,97612.88
2022-09-26T20:57:16.657Z,97599.77
2022-09-26T20:59:43.582Z,97597.71
2022-09-26T21:02:25.491Z,97599.91
2022-09-26T21:04:53.634Z,97599.48
2022-09-26T21:07:21.842Z,97594.96
2022-09-26T21:09:51.806Z,97596.21
2022-09-26T21:12:18.976Z,97603.54
2022-09-26T21:14:46.040Z,97602.15
2022-09-26T21:17:26.815Z,97603.02
2022-09-26T21:19:55.008Z,97600.95
2022-09-26T21:23:07.123Z,97585.95
2022-09-26T21:25:34.300Z,97587.62
2022-09-26T21:28:27.551Z,97582.44
2022-09-26T21:31:06.030Z,97575.22
2022-09-26T21:33:33.232Z,97569.23
2022-09-26T21:36:07.891Z,97567.88
2022-09-26T21:38:35.107Z,97567.23
2022-09-26T21:41:05.954Z,97554.81
2022-09-26T21:44:03.440Z,97557.58
2022-09-26T21:47:23.037Z,97563.28
2022-09-26T21:50:39.802Z,97564.65
2022-09-26T21:53:48.031Z,97546.85
2022-09-26T21:57:10.011Z,97539.34
2022-09-26T22:00:51.008Z,97543.39
2022-09-26T22:04:05.879Z,97531.16
2022-09-26T22:07:39.546Z,97525.50
2022-09-26T22:10:09.199Z,97521.02
2022-09-26T22:12:36.319Z,97515.91
2022-09-26T22:15:14.496Z,97518.95
2022-09-26T22:17:50.242Z,97523.70
2022-09-26T22:20:21.260Z,97524.13
2022-09-26T22:22:51.962Z,97522.25
2022-09-26T22:25:42.779Z,97517.56
2022-09-26T22:28:14.751Z,97510.17
2022-09-26T22:30:44.717Z,97508.06
2022-09-26T22:33:12.852Z,97498.57
2022-09-26T22:35:50.893Z,97484.33
2022-09-26T22:38:40.389Z,97482.44
2022-09-26T22:42:11.115Z,97480.19
2022-09-26T22:46:00.480Z,97478.88
2022-09-26T22:49:33.560Z,97478.61
2022-09-26T22:53:21.616Z,97472.89
2022-09-26T22:56:37.581Z,97479.66
2022-09-26T23:00:25.362Z,97489.39
2022-09-26T23:04:13.554Z,97479.67
2022-09-26T23:08:01.333Z,97467.05
2022-09-26T23:11:31.417Z,97464.23
2022-09-26T23:15:01.842Z,97472.16
2022-09-26T23:18:42.168Z,97476.73
2022-09-26T23:22:23.514Z,97481.83
2022-09-26T23:26:11.884Z,97497.08
2022-09-26T23:29:52.636Z,97488.71
2022-09-26T23:33:20.037Z,97480.63
2022-09-26T23:37:08.124Z,97479.91
2022-09-26T23:40:32.205Z,97476.23
2022-09-26T23:44:11.445Z,97473.27
2022-09-26T23:47:59.220Z,97467.23
2022-09-26T23:51:47.330Z,97457.02
2022-09-26T23:55:29.136Z,97450.91
2022-09-26T23:59:15.868Z,97447.02
